Anne Sibum — C4YC2 — position and weather

sailwx.info

Track history (hours):
 
Tides and Currents Weather Stations Pressure Air Temp Water Temp Dewpoint Dewpoint Depression Visibility Wind Speed Wind Dir Waves Ship Positions

Anne Sibum

Last reported at 2016-Dec-05 18:32 UTC. Time now 2016-Dec-05 18:42 UTC.
Position N 51°59' E 004°02'.

Length 151 m; draft 7.7 m.

Type: Ship (hazmat cat A). MMSI: 209322000.

Date/timePositionNaut miles runAvg speedWind from/ knotsBaromVisibWave heightAir tempDewpointWater temp
2016-Dec-05 18:32N 51°59' E 004°02'0 0.0
2016-Dec-05 17:32N 51°59' E 004°02'0 0.0
2016-Dec-05 16:31N 51°59' E 004°02'0 0.0
2016-Dec-05 15:33N 51°59' E 004°02'0 0.0
2016-Dec-05 14:33N 51°59' E 004°02'0 0.0
2016-Dec-05 13:30N 51°59' E 004°02'0 0.0
2016-Dec-05 12:33N 51°59' E 004°02'0 0.1
2016-Dec-05 11:33N 51°58' E 004°02'1 1.1
2016-Dec-05 10:32N 51°58' E 004°03'0 0.0
2016-Dec-05 09:30N 51°58' E 004°03'0 0.0
2016-Dec-05 08:31N 51°58' E 004°03'0 0.0
2016-Dec-05 07:33N 51°58' E 004°03'1 0.9
2016-Dec-05 06:32N 51°57' E 004°04'0 0.0
2016-Dec-05 05:32N 51°57' E 004°04'0 0.0
2016-Dec-05 04:31N 51°57' E 004°04'0 0.0
2016-Dec-05 03:33N 51°57' E 004°04'0 0.0
2016-Dec-05 02:32N 51°57' E 004°04'0 0.0
2016-Dec-05 01:32N 51°57' E 004°04'0 0.0
2016-Dec-05 00:32N 51°57' E 004°04'0 0.0
2016-Dec-04 23:28N 51°57' E 004°04'0 0.0
2016-Dec-04 22:33N 51°57' E 004°04'0 0.3
2016-Dec-04 21:33N 51°57' E 004°05'1 1.2
2016-Dec-04 20:31N 51°57' E 004°03'0 0.0
2016-Dec-04 19:33N 51°57' E 004°03'0 0.0
2016-Dec-04 18:33N 51°57' E 004°03'0 0.0
2016-Dec-04 17:33N 51°57' E 004°03'0 0.0
2016-Dec-04 16:32N 51°57' E 004°03'0 0.0
2016-Dec-04 15:32N 51°57' E 004°03'0 0.0
2016-Dec-04 14:32N 51°57' E 004°03'0 0.0
2016-Dec-04 13:31N 51°57' E 004°03'0 0.0
2016-Dec-04 12:33N 51°57' E 004°03'0 0.0
2016-Dec-04 11:33N 51°57' E 004°03'0 0.0
2016-Dec-04 10:34N 51°57' E 004°03'0 0.0
2016-Dec-04 09:33N 51°57' E 004°03'0 0.0
2016-Dec-04 08:34N 51°57' E 004°03'0 0.0
2016-Dec-04 07:34N 51°57' E 004°03'2 1.7
2016-Dec-04 06:34N 51°58' E 004°05'8 7.9
2016-Dec-04 05:34N 51°54' E 004°16'6 5.8
2016-Dec-04 04:34N 51°53' E 004°25'0 0.0
2016-Dec-04 03:33N 51°53' E 004°25'0 0.0
2016-Dec-04 02:33N 51°53' E 004°25'0 0.0
2016-Dec-04 01:32N 51°53' E 004°25'0 0.0
2016-Dec-04 00:32N 51°53' E 004°25'0 0.0
2016-Dec-03 23:32N 51°53' E 004°25'0 0.0
2016-Dec-03 22:31N 51°53' E 004°25'0 0.0
2016-Dec-03 21:33N 51°53' E 004°25'0 0.0
2016-Dec-03 20:33N 51°53' E 004°25'0 0.0
2016-Dec-03 19:33N 51°53' E 004°25'3 3.2
2016-Dec-03 18:34N 51°54' E 004°20'1211.6
2016-Dec-03 17:33N 51°59' E 004°04'1313.3
2016-Dec-03 16:33N 51°58' E 003°42'3014.7
2016-Dec-03 14:33N 51°49' E 002°56'1515.6
2016-Dec-03 13:33N 51°42' E 002°34'1615.9
2016-Dec-03 12:33N 51°30' E 002°17'1515.0
2016-Dec-03 11:34N 51°17' E 002°06'1313.4
2016-Dec-03 10:33N 51°09' E 001°50'1312.9
2016-Dec-03 09:33N 51°01' E 001°33'1412.7
2016-Dec-03 08:28N 50°48' E 001°25'5612.9
2016-Dec-03 04:09N 50°21' E 000°08'813.3
2016-Dec-03 03:33N 50°19' W 000°04'4413.9
2016-Dec-03 00:22N 50°12' W 001°12'1316.2
2016-Dec-02 23:33N 50°12' W 001°33'4217.4
2016-Dec-02 21:10N 50°09' W 002°38'1117.6
2016-Dec-02 20:33N 50°07' W 002°54'1717.0
2016-Dec-02 19:34N 50°04' W 003°20'1716.7
2016-Dec-02 18:33N 50°02' W 003°46'1616.2
2016-Dec-02 17:33N 50°00' W 004°11'1816.0
2016-Dec-02 16:27N 49°58' W 004°38'1415.8
2016-Dec-02 15:33N 49°56' W 005°00'1615.3
2016-Dec-02 14:32N 49°55' W 005°25'2014.9
2016-Dec-02 13:12N 49°55' W 005°55'7315.5
2016-Dec-02 08:31N 51°08' W 006°01'17417.1
2016-Dec-01 22:21N 54°00' W 005°25'1316.6
2016-Dec-01 21:34N 54°13' W 005°21'1616.4
2016-Dec-01 20:34N 54°30' W 005°21'1514.9
2016-Dec-01 19:34N 54°42' W 005°35'1111.3
2016-Dec-01 18:33N 54°38' W 005°53'0 0.0
2016-Dec-01 06:13N 54°38' W 005°53'0 0.0
2016-Dec-01 05:13N 54°38' W 005°53'0 0.0
2016-Dec-01 02:09N 54°38' W 005°53'0 0.0
2016-Nov-30 10:16N 54°38' W 005°53'7 9.9
2016-Nov-30 09:33N 54°42' W 005°44'1110.8
2016-Nov-30 08:33N 54°40' W 005°26'1312.8
2016-Nov-30 07:33N 54°27' W 005°19'1312.7
2016-Nov-30 06:33N 54°15' W 005°23'1313.2
2016-Nov-30 05:33N 54°02' W 005°31'190 7.3
2016-Nov-29 03:32N 50°53' W 005°53'2316.5
2016-Nov-29 02:10N 50°31' W 005°53'1216.6
2016-Nov-29 01:26N 50°18' W 005°53'2913.4
2016-Nov-28 23:18N 49°56' W 005°25'1517.7
2016-Nov-28 22:26N 49°56' W 005°01'1517.6
2016-Nov-28 21:33N 49°60' W 004°37'1817.2
2016-Nov-28 20:31N 50°03' W 004°10'1616.4
2016-Nov-28 19:33N 50°06' W 003°46'1615.5
2016-Nov-28 18:33N 50°08' W 003°22'1515.3
2016-Nov-28 17:33N 50°10' W 002°58'1615.8
2016-Nov-28 16:33N 50°14' W 002°34'3617.6
2016-Nov-28 14:30N 50°20' W 001°39'5618.9
2016-Nov-28 11:33N 50°31' W 000°12'1717.2
2016-Nov-28 10:33N 50°35' E 000°13'3415.8
2016-Nov-28 08:26N 50°49' E 001°02'1517.1
2016-Nov-28 07:33N 51°00' E 001°18'1919.5
2016-Nov-28 06:33N 51°12' E 001°42'1818.4
2016-Nov-28 05:33N 51°27' E 001°60'1717.2
2016-Nov-28 04:33N 51°40' E 002°18'4614.9
2016-Nov-28 01:28N 52°03' E 003°23'1415.2
2016-Nov-28 00:33N 52°03' E 003°46'1313.1
2016-Nov-27 23:33N 51°59' E 004°06'1111.1
2016-Nov-27 22:33N 51°54' E 004°22'2 2.2
2016-Nov-27 21:31N 51°53' E 004°25'0 0.0
2016-Nov-27 20:33N 51°53' E 004°25'0 0.0
2016-Nov-27 19:33N 51°53' E 004°25'0 0.0
2016-Nov-27 18:33N 51°53' E 004°25'0 0.0
2016-Nov-27 17:32N 51°53' E 004°25'0 0.0
2016-Nov-27 16:32N 51°53' E 004°25'0 0.0
2016-Nov-27 15:32N 51°53' E 004°25'0 0.0
2016-Nov-27 14:31N 51°53' E 004°25'0 0.0
2016-Nov-27 13:33N 51°53' E 004°25'0 0.0
2016-Nov-27 12:33N 51°53' E 004°25'0 0.0
2016-Nov-27 11:33N 51°53' E 004°25'0 0.0
2016-Nov-27 10:32N 51°53' E 004°25'0 0.0
2016-Nov-27 09:32N 51°53' E 004°25'0 0.0
2016-Nov-27 08:31N 51°53' E 004°25'0 0.0
2016-Nov-27 07:32N 51°53' E 004°25'0 0.0
2016-Nov-27 05:33N 51°53' E 004°25'2 1.7
2016-Nov-27 04:34N 51°54' E 004°23'1111.4
2016-Nov-27 03:33N 51°59' E 004°06'2 2.4
2016-Nov-27 02:33N 51°58' E 004°03'0 0.0
2016-Nov-27 01:33N 51°58' E 004°03'0 0.0
2016-Nov-27 00:33N 51°58' E 004°03'0 0.0
2016-Nov-26 23:33N 51°58' E 004°03'0 0.0
2016-Nov-26 22:33N 51°58' E 004°03'0 0.0
2016-Nov-26 21:33N 51°58' E 004°03'0 0.0
2016-Nov-26 20:33N 51°58' E 004°03'0 0.0
2016-Nov-26 19:33N 51°58' E 004°03'0 0.0
2016-Nov-26 18:33N 51°58' E 004°03'1 0.8
2016-Nov-26 17:33N 51°58' E 004°04'1 0.7
2016-Nov-26 16:33N 51°57' E 004°04'0 0.0
2016-Nov-26 15:33N 51°57' E 004°04'0 0.0
2016-Nov-26 14:32N 51°57' E 004°04'0 0.0
2016-Nov-26 13:32N 51°57' E 004°04'0 0.0
2016-Nov-26 12:32N 51°57' E 004°04'0 0.0
2016-Nov-26 11:33N 51°57' E 004°04'8 8.5
2016-Nov-26 10:34N 51°60' E 003°51'1615.9
2016-Nov-26 09:33N 51°56' E 003°26'1716.8
2016-Nov-26 08:34N 51°51' E 003°00'1915.8
2016-Nov-26 07:21N 51°43' E 002°33'1215.5
2016-Nov-26 06:33N 51°34' E 002°19'1514.7
2016-Nov-26 05:33N 51°21' E 002°07'1413.9
2016-Nov-26 04:33N 51°10' E 001°54'1414.5
2016-Nov-26 03:34N 51°01' E 001°36'4414.6
2016-Nov-26 00:31N 50°29' E 000°48'3115.8
2016-Nov-25 22:33N 50°21' E 000°01'4916.2
2016-Nov-25 19:33N 50°09' W 001°13'1716.8
2016-Nov-25 18:33N 50°08' W 001°40'  
Track history (hours):
 
Tides and Currents Weather Stations Pressure Air Temp Water Temp Dewpoint Dewpoint Depression Visibility Wind Speed Wind Dir Waves Ship Positions

Anne Sibum

Last reported at 2016-Dec-05 18:32 UTC. Time now 2016-Dec-05 18:42 UTC.
Position N 51°59' E 004°02'.

Length 151 m; draft 7.7 m.

Type: Ship (hazmat cat A). MMSI: 209322000.

Date/timePositionNaut miles runAvg speedWind from/ knotsBaromVisibWave heightAir tempDewpointWater temp
2016-Dec-05 18:32N 51°59' E 004°02'0 0.0
2016-Dec-05 17:32N 51°59' E 004°02'0 0.0
2016-Dec-05 16:31N 51°59' E 004°02'0 0.0
2016-Dec-05 15:33N 51°59' E 004°02'0 0.0
2016-Dec-05 14:33N 51°59' E 004°02'0 0.0
2016-Dec-05 13:30N 51°59' E 004°02'0 0.0
2016-Dec-05 12:33N 51°59' E 004°02'0 0.1
2016-Dec-05 11:33N 51°58' E 004°02'1 1.1
2016-Dec-05 10:32N 51°58' E 004°03'0 0.0
2016-Dec-05 09:30N 51°58' E 004°03'0 0.0
2016-Dec-05 08:31N 51°58' E 004°03'0 0.0
2016-Dec-05 07:33N 51°58' E 004°03'1 0.9
2016-Dec-05 06:32N 51°57' E 004°04'0 0.0
2016-Dec-05 05:32N 51°57' E 004°04'0 0.0
2016-Dec-05 04:31N 51°57' E 004°04'0 0.0
2016-Dec-05 03:33N 51°57' E 004°04'0 0.0
2016-Dec-05 02:32N 51°57' E 004°04'0 0.0
2016-Dec-05 01:32N 51°57' E 004°04'0 0.0
2016-Dec-05 00:32N 51°57' E 004°04'0 0.0
2016-Dec-04 23:28N 51°57' E 004°04'0 0.0
2016-Dec-04 22:33N 51°57' E 004°04'0 0.3
2016-Dec-04 21:33N 51°57' E 004°05'1 1.2
2016-Dec-04 20:31N 51°57' E 004°03'0 0.0
2016-Dec-04 19:33N 51°57' E 004°03'0 0.0
2016-Dec-04 18:33N 51°57' E 004°03'0 0.0
2016-Dec-04 17:33N 51°57' E 004°03'0 0.0
2016-Dec-04 16:32N 51°57' E 004°03'0 0.0
2016-Dec-04 15:32N 51°57' E 004°03'0 0.0
2016-Dec-04 14:32N 51°57' E 004°03'0 0.0
2016-Dec-04 13:31N 51°57' E 004°03'0 0.0
2016-Dec-04 12:33N 51°57' E 004°03'0 0.0
2016-Dec-04 11:33N 51°57' E 004°03'0 0.0
2016-Dec-04 10:34N 51°57' E 004°03'0 0.0
2016-Dec-04 09:33N 51°57' E 004°03'0 0.0
2016-Dec-04 08:34N 51°57' E 004°03'0 0.0
2016-Dec-04 07:34N 51°57' E 004°03'2 1.7
2016-Dec-04 06:34N 51°58' E 004°05'8 7.9
2016-Dec-04 05:34N 51°54' E 004°16'6 5.8
2016-Dec-04 04:34N 51°53' E 004°25'0 0.0
2016-Dec-04 03:33N 51°53' E 004°25'0 0.0
2016-Dec-04 02:33N 51°53' E 004°25'0 0.0
2016-Dec-04 01:32N 51°53' E 004°25'0 0.0
2016-Dec-04 00:32N 51°53' E 004°25'0 0.0
2016-Dec-03 23:32N 51°53' E 004°25'0 0.0
2016-Dec-03 22:31N 51°53' E 004°25'0 0.0
2016-Dec-03 21:33N 51°53' E 004°25'0 0.0
2016-Dec-03 20:33N 51°53' E 004°25'0 0.0
2016-Dec-03 19:33N 51°53' E 004°25'3 3.2
2016-Dec-03 18:34N 51°54' E 004°20'1211.6
2016-Dec-03 17:33N 51°59' E 004°04'1313.3
2016-Dec-03 16:33N 51°58' E 003°42'3014.7
2016-Dec-03 14:33N 51°49' E 002°56'1515.6
2016-Dec-03 13:33N 51°42' E 002°34'1615.9
2016-Dec-03 12:33N 51°30' E 002°17'1515.0
2016-Dec-03 11:34N 51°17' E 002°06'1313.4
2016-Dec-03 10:33N 51°09' E 001°50'1312.9
2016-Dec-03 09:33N 51°01' E 001°33'1412.7
2016-Dec-03 08:28N 50°48' E 001°25'5612.9
2016-Dec-03 04:09N 50°21' E 000°08'813.3
2016-Dec-03 03:33N 50°19' W 000°04'4413.9
2016-Dec-03 00:22N 50°12' W 001°12'1316.2
2016-Dec-02 23:33N 50°12' W 001°33'4217.4
2016-Dec-02 21:10N 50°09' W 002°38'1117.6
2016-Dec-02 20:33N 50°07' W 002°54'1717.0
2016-Dec-02 19:34N 50°04' W 003°20'1716.7
2016-Dec-02 18:33N 50°02' W 003°46'1616.2
2016-Dec-02 17:33N 50°00' W 004°11'1816.0
2016-Dec-02 16:27N 49°58' W 004°38'1415.8
2016-Dec-02 15:33N 49°56' W 005°00'1615.3
2016-Dec-02 14:32N 49°55' W 005°25'2014.9
2016-Dec-02 13:12N 49°55' W 005°55'7315.5
2016-Dec-02 08:31N 51°08' W 006°01'17417.1
2016-Dec-01 22:21N 54°00' W 005°25'1316.6
2016-Dec-01 21:34N 54°13' W 005°21'1616.4
2016-Dec-01 20:34N 54°30' W 005°21'1514.9
2016-Dec-01 19:34N 54°42' W 005°35'1111.3
2016-Dec-01 18:33N 54°38' W 005°53'0 0.0
2016-Dec-01 06:13N 54°38' W 005°53'0 0.0
2016-Dec-01 05:13N 54°38' W 005°53'0 0.0
2016-Dec-01 02:09N 54°38' W 005°53'0 0.0
2016-Nov-30 10:16N 54°38' W 005°53'7 9.9
2016-Nov-30 09:33N 54°42' W 005°44'1110.8
2016-Nov-30 08:33N 54°40' W 005°26'1312.8
2016-Nov-30 07:33N 54°27' W 005°19'1312.7
2016-Nov-30 06:33N 54°15' W 005°23'1313.2
2016-Nov-30 05:33N 54°02' W 005°31'190 7.3
2016-Nov-29 03:32N 50°53' W 005°53'2316.5
2016-Nov-29 02:10N 50°31' W 005°53'1216.6
2016-Nov-29 01:26N 50°18' W 005°53'2913.4
2016-Nov-28 23:18N 49°56' W 005°25'1517.7
2016-Nov-28 22:26N 49°56' W 005°01'1517.6
2016-Nov-28 21:33N 49°60' W 004°37'1817.2
2016-Nov-28 20:31N 50°03' W 004°10'1616.4
2016-Nov-28 19:33N 50°06' W 003°46'1615.5
2016-Nov-28 18:33N 50°08' W 003°22'1515.3
2016-Nov-28 17:33N 50°10' W 002°58'1615.8
2016-Nov-28 16:33N 50°14' W 002°34'3617.6
2016-Nov-28 14:30N 50°20' W 001°39'5618.9
2016-Nov-28 11:33N 50°31' W 000°12'1717.2
2016-Nov-28 10:33N 50°35' E 000°13'3415.8
2016-Nov-28 08:26N 50°49' E 001°02'1517.1
2016-Nov-28 07:33N 51°00' E 001°18'1919.5
2016-Nov-28 06:33N 51°12' E 001°42'1818.4
2016-Nov-28 05:33N 51°27' E 001°60'1717.2
2016-Nov-28 04:33N 51°40' E 002°18'4614.9
2016-Nov-28 01:28N 52°03' E 003°23'1415.2
2016-Nov-28 00:33N 52°03' E 003°46'1313.1
2016-Nov-27 23:33N 51°59' E 004°06'1111.1
2016-Nov-27 22:33N 51°54' E 004°22'2 2.2
2016-Nov-27 21:31N 51°53' E 004°25'0 0.0
2016-Nov-27 20:33N 51°53' E 004°25'0 0.0
2016-Nov-27 19:33N 51°53' E 004°25'0 0.0
2016-Nov-27 18:33N 51°53' E 004°25'0 0.0
2016-Nov-27 17:32N 51°53' E 004°25'0 0.0
2016-Nov-27 16:32N 51°53' E 004°25'0 0.0
2016-Nov-27 15:32N 51°53' E 004°25'0 0.0
2016-Nov-27 14:31N 51°53' E 004°25'0 0.0
2016-Nov-27 13:33N 51°53' E 004°25'0 0.0
2016-Nov-27 12:33N 51°53' E 004°25'0 0.0
2016-Nov-27 11:33N 51°53' E 004°25'0 0.0
2016-Nov-27 10:32N 51°53' E 004°25'0 0.0
2016-Nov-27 09:32N 51°53' E 004°25'0 0.0
2016-Nov-27 08:31N 51°53' E 004°25'0 0.0
2016-Nov-27 07:32N 51°53' E 004°25'0 0.0
2016-Nov-27 05:33N 51°53' E 004°25'2 1.7
2016-Nov-27 04:34N 51°54' E 004°23'1111.4
2016-Nov-27 03:33N 51°59' E 004°06'2 2.4
2016-Nov-27 02:33N 51°58' E 004°03'0 0.0
2016-Nov-27 01:33N 51°58' E 004°03'0 0.0
2016-Nov-27 00:33N 51°58' E 004°03'0 0.0
2016-Nov-26 23:33N 51°58' E 004°03'0 0.0
2016-Nov-26 22:33N 51°58' E 004°03'0 0.0
2016-Nov-26 21:33N 51°58' E 004°03'0 0.0
2016-Nov-26 20:33N 51°58' E 004°03'0 0.0
2016-Nov-26 19:33N 51°58' E 004°03'0 0.0
2016-Nov-26 18:33N 51°58' E 004°03'1 0.8
2016-Nov-26 17:33N 51°58' E 004°04'1 0.7
2016-Nov-26 16:33N 51°57' E 004°04'0 0.0
2016-Nov-26 15:33N 51°57' E 004°04'0 0.0
2016-Nov-26 14:32N 51°57' E 004°04'0 0.0
2016-Nov-26 13:32N 51°57' E 004°04'0 0.0
2016-Nov-26 12:32N 51°57' E 004°04'0 0.0
2016-Nov-26 11:33N 51°57' E 004°04'8 8.5
2016-Nov-26 10:34N 51°60' E 003°51'1615.9
2016-Nov-26 09:33N 51°56' E 003°26'1716.8
2016-Nov-26 08:34N 51°51' E 003°00'1915.8
2016-Nov-26 07:21N 51°43' E 002°33'1215.5
2016-Nov-26 06:33N 51°34' E 002°19'1514.7
2016-Nov-26 05:33N 51°21' E 002°07'1413.9
2016-Nov-26 04:33N 51°10' E 001°54'1414.5
2016-Nov-26 03:34N 51°01' E 001°36'4414.6
2016-Nov-26 00:31N 50°29' E 000°48'3115.8
2016-Nov-25 22:33N 50°21' E 000°01'4916.2
2016-Nov-25 19:33N 50°09' W 001°13'1716.8
2016-Nov-25 18:33N 50°08' W 001°40'  

Dump ship's entire track history